sensor_id;sensor_type;location;lat;lon;timestamp;pressure;altitude;pressure_sealevel;temperature;humidity
59419;BME280;45224;50.904;6.038;2022-07-01T00:00:30;99809.31;;;15.47;79.72
59419;BME280;45224;50.904;6.038;2022-07-01T00:02:02;99796.31;;;15.45;79.75
59419;BME280;45224;50.904;6.038;2022-07-01T00:03:32;99805.06;;;15.44;79.56
59419;BME280;45224;50.904;6.038;2022-07-01T00:05:04;99803.31;;;15.43;79.55
59419;BME280;45224;50.904;6.038;2022-07-01T00:06:50;99793.88;;;15.39;79.83
59419;BME280;45224;50.904;6.038;2022-07-01T00:08:21;99795.81;;;15.28;80.72
59419;BME280;45224;50.904;6.038;2022-07-01T00:09:51;99796.66;;;15.30;80.44
59419;BME280;45224;50.904;6.038;2022-07-01T00:11:22;99805.34;;;15.29;80.42
59419;BME280;45224;50.904;6.038;2022-07-01T00:12:52;99804.38;;;15.34;79.99
59419;BME280;45224;50.904;6.038;2022-07-01T00:14:23;99810.53;;;15.30;80.27
59419;BME280;45224;50.904;6.038;2022-07-01T00:15:53;99805.22;;;15.35;79.70
59419;BME280;45224;50.904;6.038;2022-07-01T00:17:24;99798.44;;;15.28;79.95
59419;BME280;45224;50.904;6.038;2022-07-01T00:18:54;99796.66;;;15.30;79.98
59419;BME280;45224;50.904;6.038;2022-07-01T00:20:25;99789.78;;;15.24;80.54
59419;BME280;45224;50.904;6.038;2022-07-01T00:21:55;99785.56;;;15.19;80.90
59419;BME280;45224;50.904;6.038;2022-07-01T00:23:26;99780.34;;;15.20;80.60
59419;BME280;45224;50.904;6.038;2022-07-01T00:24:57;99779.50;;;15.20;80.59
59419;BME280;45224;50.904;6.038;2022-07-01T00:26:27;99796.16;;;15.09;81.34
59419;BME280;45224;50.904;6.038;2022-07-01T00:27:58;99792.63;;;15.13;80.74
59419;BME280;45224;50.904;6.038;2022-07-01T00:29:28;99787.41;;;15.13;81.00
59419;BME280;45224;50.904;6.038;2022-07-01T00:30:59;99790.97;;;15.08;80.97
59419;BME280;45224;50.904;6.038;2022-07-01T00:32:29;99792.81;;;15.03;81.41
59419;BME280;45224;50.904;6.038;2022-07-01T00:34:00;99793.56;;;15.09;80.79
59419;BME280;45224;50.904;6.038;2022-07-01T00:35:30;99798.81;;;15.06;81.27
59419;BME280;45224;50.904;6.038;2022-07-01T00:37:01;99802.44;;;14.97;81.70
59419;BME280;45224;50.904;6.038;2022-07-01T00:38:31;99807.47;;;15.08;80.85
59419;BME280;45224;50.904;6.038;2022-07-01T00:40:02;99807.53;;;15.05;81.47
59419;BME280;45224;50.904;6.038;2022-07-01T00:41:33;99809.28;;;15.03;81.50
59419;BME280;45224;50.904;6.038;2022-07-01T00:43:03;99813.47;;;15.12;80.78
59419;BME280;45224;50.904;6.038;2022-07-01T00:44:34;99816.16;;;15.07;81.56
59419;BME280;45224;50.904;6.038;2022-07-01T00:46:05;99822.31;;;15.02;81.60
59419;BME280;45224;50.904;6.038;2022-07-01T00:47:36;99817.25;;;14.95;81.83
59419;BME280;45224;50.904;6.038;2022-07-01T00:49:07;99827.56;;;15.00;81.44
59419;BME280;45224;50.904;6.038;2022-07-01T00:50:38;99825.09;;;14.94;82.47
59419;BME280;45224;50.904;6.038;2022-07-01T00:52:09;99819.91;;;14.92;81.81
59419;BME280;45224;50.904;6.038;2022-07-01T00:53:40;99821.56;;;14.96;81.39
59419;BME280;45224;50.904;6.038;2022-07-01T00:55:12;99829.47;;;14.89;82.04
59419;BME280;45224;50.904;6.038;2022-07-01T00:56:42;99831.34;;;14.82;82.49
59419;BME280;45224;50.904;6.038;2022-07-01T00:58:13;99819.19;;;14.84;82.14
59419;BME280;45224;50.904;6.038;2022-07-01T00:59:43;99823.56;;;14.81;82.42
59419;BME280;45224;50.904;6.038;2022-07-01T01:01:14;99816.56;;;14.86;82.14
59419;BME280;45224;50.904;6.038;2022-07-01T01:02:44;99826.09;;;14.85;81.91
59419;BME280;45224;50.904;6.038;2022-07-01T01:04:15;99823.59;;;14.77;82.25
59419;BME280;45224;50.904;6.038;2022-07-01T01:05:45;99826.25;;;14.76;82.11
59419;BME280;45224;50.904;6.038;2022-07-01T01:07:16;99829.66;;;14.79;81.72
59419;BME280;45224;50.904;6.038;2022-07-01T01:08:47;99837.44;;;14.83;81.77
59419;BME280;45224;50.904;6.038;2022-07-01T01:10:19;99835.66;;;14.85;81.20
59419;BME280;45224;50.904;6.038;2022-07-01T01:11:49;99844.34;;;14.82;81.71
59419;BME280;45224;50.904;6.038;2022-07-01T01:13:20;99849.59;;;14.81;82.02
59419;BME280;45224;50.904;6.038;2022-07-01T01:14:51;99849.72;;;14.74;82.48
59419;BME280;45224;50.904;6.038;2022-07-01T01:16:22;99847.22;;;14.67;82.64
59419;BME280;45224;50.904;6.038;2022-07-01T01:17:53;99849.81;;;14.68;82.57
59419;BME280;45224;50.904;6.038;2022-07-01T01:19:23;99849.84;;;14.65;83.01
59419;BME280;45224;50.904;6.038;2022-07-01T01:20:54;99865.47;;;14.65;82.74
59419;BME280;45224;50.904;6.038;2022-07-01T01:22:25;99868.03;;;14.67;82.86
59419;BME280;45224;50.904;6.038;2022-07-01T01:23:56;99870.56;;;14.71;82.33
59419;BME280;45224;50.904;6.038;2022-07-01T01:25:27;99865.41;;;14.68;82.89
59419;BME280;45224;50.904;6.038;2022-07-01T01:26:58;99870.66;;;14.65;82.73
59419;BME280;45224;50.904;6.038;2022-07-01T01:28:28;99865.38;;;14.71;82.26
59419;BME280;45224;50.904;6.038;2022-07-01T01:29:59;99863.63;;;14.72;82.23
59419;BME280;45224;50.904;6.038;2022-07-01T01:31:30;99869.66;;;14.72;82.37
59419;BME280;45224;50.904;6.038;2022-07-01T01:33:01;99863.53;;;14.76;81.99
59419;BME280;45224;50.904;6.038;2022-07-01T01:34:33;99851.41;;;14.75;81.86
59419;BME280;45224;50.904;6.038;2022-07-01T01:36:04;99839.16;;;14.81;81.42
59419;BME280;45224;50.904;6.038;2022-07-01T01:37:36;99835.69;;;14.82;81.40
59419;BME280;45224;50.904;6.038;2022-07-01T01:39:06;99826.19;;;14.79;81.48
59419;BME280;45224;50.904;6.038;2022-07-01T01:40:46;99826.13;;;14.82;81.11
59419;BME280;45224;50.904;6.038;2022-07-01T01:42:16;99831.38;;;14.81;81.28
59419;BME280;45224;50.904;6.038;2022-07-01T01:43:46;99839.28;;;14.76;81.95
59419;BME280;45224;50.904;6.038;2022-07-01T01:45:17;99840.09;;;14.78;81.40
59419;BME280;45224;50.904;6.038;2022-07-01T01:46:48;99850.56;;;14.75;81.74
59419;BME280;45224;50.904;6.038;2022-07-01T01:48:18;99864.53;;;14.68;82.10
59419;BME280;45224;50.904;6.038;2022-07-01T01:49:49;99862.78;;;14.70;81.95
59419;BME280;45224;50.904;6.038;2022-07-01T01:51:19;99869.66;;;14.74;81.11
59419;BME280;45224;50.904;6.038;2022-07-01T01:52:49;99861.88;;;14.72;81.39
59419;BME280;45224;50.904;6.038;2022-07-01T01:54:20;99872.22;;;14.75;81.08
59419;BME280;45224;50.904;6.038;2022-07-01T01:55:50;99872.44;;;14.63;82.19
59419;BME280;45224;50.904;6.038;2022-07-01T01:57:21;99878.53;;;14.59;82.08
59419;BME280;45224;50.904;6.038;2022-07-01T01:58:51;99870.88;;;14.47;82.57
59419;BME280;45224;50.904;6.038;2022-07-01T02:00:22;99871.72;;;14.52;82.61
59419;BME280;45224;50.904;6.038;2022-07-01T02:01:52;99853.41;;;14.56;81.97
59419;BME280;45224;50.904;6.038;2022-07-01T02:03:23;99850.00;;;14.53;82.35
59419;BME280;45224;50.904;6.038;2022-07-01T02:04:53;99855.16;;;14.56;81.71
59419;BME280;45224;50.904;6.038;2022-07-01T02:06:24;99859.47;;;14.58;81.44
59419;BME280;45224;50.904;6.038;2022-07-01T02:07:55;99871.56;;;14.61;81.23
59419;BME280;45224;50.904;6.038;2022-07-01T02:09:25;99864.00;;;14.46;81.94
59419;BME280;45224;50.904;6.038;2022-07-01T02:10:56;99867.38;;;14.51;81.67
59419;BME280;45224;50.904;6.038;2022-07-01T02:12:26;99870.78;;;14.54;81.33
59419;BME280;45224;50.904;6.038;2022-07-01T02:13:56;99869.94;;;14.52;81.75
59419;BME280;45224;50.904;6.038;2022-07-01T02:15:27;99869.03;;;14.55;81.31
59419;BME280;45224;50.904;6.038;2022-07-01T02:16:57;99866.53;;;14.49;82.25
59419;BME280;45224;50.904;6.038;2022-07-01T02:18:28;99864.00;;;14.44;81.81
59419;BME280;45224;50.904;6.038;2022-07-01T02:19:58;99862.13;;;14.54;81.02
59419;BME280;45224;50.904;6.038;2022-07-01T02:21:29;99851.75;;;14.51;81.11
59419;BME280;45224;50.904;6.038;2022-07-01T02:22:59;99854.31;;;14.55;80.87
59419;BME280;45224;50.904;6.038;2022-07-01T02:24:30;99863.91;;;14.52;81.32
59419;BME280;45224;50.904;6.038;2022-07-01T02:26:00;99872.50;;;14.55;81.13
59419;BME280;45224;50.904;6.038;2022-07-01T02:27:31;99874.22;;;14.55;81.38
59419;BME280;45224;50.904;6.038;2022-07-01T02:29:01;99871.69;;;14.53;81.34
59419;BME280;45224;50.904;6.038;2022-07-01T02:30:32;99884.63;;;14.55;81.54
59419;BME280;45224;50.904;6.038;2022-07-01T02:32:06;99877.69;;;14.60;81.08
59419;BME280;45224;50.904;6.038;2022-07-01T02:33:37;99882.94;;;14.54;81.90
59419;BME280;45224;50.904;6.038;2022-07-01T02:35:07;99884.75;;;14.49;81.90
59419;BME280;45224;50.904;6.038;2022-07-01T02:36:37;99878.72;;;14.45;81.89
59419;BME280;45224;50.904;6.038;2022-07-01T02:38:08;99895.09;;;14.53;81.20
59419;BME280;45224;50.904;6.038;2022-07-01T02:39:38;99904.63;;;14.53;82.01
59419;BME280;45224;50.904;6.038;2022-07-01T02:41:09;99895.22;;;14.44;82.37
59419;BME280;45224;50.904;6.038;2022-07-01T02:42:40;99888.22;;;14.48;82.13
59419;BME280;45224;50.904;6.038;2022-07-01T02:44:11;99895.94;;;14.55;81.30
59419;BME280;45224;50.904;6.038;2022-07-01T02:45:42;99905.41;;;14.58;81.19
59419;BME280;45224;50.904;6.038;2022-07-01T02:47:12;99913.22;;;14.58;81.29
59419;BME280;45224;50.904;6.038;2022-07-01T02:48:42;99919.38;;;14.54;81.64
59419;BME280;45224;50.904;6.038;2022-07-01T02:50:14;99920.19;;;14.56;81.82
59419;BME280;45224;50.904;6.038;2022-07-01T02:51:44;99921.03;;;14.58;81.14
59419;BME280;45224;50.904;6.038;2022-07-01T02:53:14;99919.31;;;14.57;81.32
59419;BME280;45224;50.904;6.038;2022-07-01T02:54:45;99929.72;;;14.57;81.46
59419;BME280;45224;50.904;6.038;2022-07-01T02:56:15;99921.91;;;14.62;81.37
59419;BME280;45224;50.904;6.038;2022-07-01T02:57:46;99915.81;;;14.61;81.29
59419;BME280;45224;50.904;6.038;2022-07-01T02:59:19;99911.44;;;14.65;81.08
59419;BME280;45224;50.904;6.038;2022-07-01T03:00:50;99907.91;;;14.67;80.81
59419;BME280;45224;50.904;6.038;2022-07-01T03:02:23;99913.16;;;14.66;81.07
59419;BME280;45224;50.904;6.038;2022-07-01T03:03:54;99906.25;;;14.65;80.85
59419;BME280;45224;50.904;6.038;2022-07-01T03:05:24;99912.25;;;14.68;80.96
59419;BME280;45224;50.904;6.038;2022-07-01T03:06:55;99910.53;;;14.67;81.24
59419;BME280;45224;50.904;6.038;2022-07-01T03:08:25;99915.69;;;14.69;81.26
59419;BME280;45224;50.904;6.038;2022-07-01T03:09:56;99914.84;;;14.70;80.93
59419;BME280;45224;50.904;6.038;2022-07-01T03:11:26;99920.03;;;14.70;80.82
59419;BME280;45224;50.904;6.038;2022-07-01T03:12:57;99919.13;;;14.71;80.47
59419;BME280;45224;50.904;6.038;2022-07-01T03:14:29;99925.28;;;14.67;81.50
59419;BME280;45224;50.904;6.038;2022-07-01T03:15:59;99933.88;;;14.72;80.90
59419;BME280;45224;50.904;6.038;2022-07-01T03:17:32;99924.31;;;14.72;80.65
59419;BME280;45224;50.904;6.038;2022-07-01T03:19:03;99920.00;;;14.71;81.14
59419;BME280;45224;50.904;6.038;2022-07-01T03:20:35;99916.50;;;14.72;81.11
59419;BME280;45224;50.904;6.038;2022-07-01T03:22:06;99920.94;;;14.67;81.58
59419;BME280;45224;50.904;6.038;2022-07-01T03:23:36;99918.41;;;14.61;81.63
59419;BME280;45224;50.904;6.038;2022-07-01T03:25:07;99923.59;;;14.63;81.51
59419;BME280;45224;50.904;6.038;2022-07-01T03:26:38;99933.22;;;14.54;82.46
59419;BME280;45224;50.904;6.038;2022-07-01T03:28:08;99935.06;;;14.48;82.59
59419;BME280;45224;50.904;6.038;2022-07-01T03:29:39;99942.78;;;14.54;82.14
59419;BME280;45224;50.904;6.038;2022-07-01T03:31:09;99941.84;;;14.56;81.94
59419;BME280;45224;50.904;6.038;2022-07-01T03:32:41;99938.47;;;14.50;82.65
59419;BME280;45224;50.904;6.038;2022-07-01T03:34:11;99950.69;;;14.45;82.92
59419;BME280;45224;50.904;6.038;2022-07-01T03:35:42;99942.06;;;14.42;82.54
59419;BME280;45224;50.904;6.038;2022-07-01T03:37:16;99937.75;;;14.40;82.66
59419;BME280;45224;50.904;6.038;2022-07-01T03:38:47;99942.13;;;14.36;82.85
59419;BME280;45224;50.904;6.038;2022-07-01T03:40:18;99941.28;;;14.37;83.02
59419;BME280;45224;50.904;6.038;2022-07-01T03:41:48;99939.53;;;14.36;82.67
59419;BME280;45224;50.904;6.038;2022-07-01T03:43:19;99943.91;;;14.34;82.84
59419;BME280;45224;50.904;6.038;2022-07-01T03:44:49;99943.97;;;14.28;83.37
59419;BME280;45224;50.904;6.038;2022-07-01T03:46:20;99945.88;;;14.14;83.50
59419;BME280;45224;50.904;6.038;2022-07-01T03:47:51;99937.03;;;14.27;83.00
59419;BME280;45224;50.904;6.038;2022-07-01T03:49:21;99932.00;;;14.18;83.50
59419;BME280;45224;50.904;6.038;2022-07-01T03:50:52;99938.09;;;14.14;83.83
59419;BME280;45224;50.904;6.038;2022-07-01T03:52:23;99932.03;;;14.15;83.33
59419;BME280;45224;50.904;6.038;2022-07-01T03:53:53;99931.16;;;14.13;83.74
59419;BME280;45224;50.904;6.038;2022-07-01T03:55:42;99945.00;;;14.18;83.57
59419;BME280;45224;50.904;6.038;2022-07-01T03:57:13;99944.91;;;14.22;83.27
59419;BME280;45224;50.904;6.038;2022-07-01T03:58:43;99938.03;;;14.20;83.40
59419;BME280;45224;50.904;6.038;2022-07-01T04:00:19;99944.06;;;14.22;83.29
59419;BME280;45224;50.904;6.038;2022-07-01T04:01:50;99941.53;;;14.16;83.63
59419;BME280;45224;50.904;6.038;2022-07-01T04:03:20;99938.97;;;14.13;83.26
59419;BME280;45224;50.904;6.038;2022-07-01T04:04:51;99935.44;;;14.17;82.82
59419;BME280;45224;50.904;6.038;2022-07-01T04:06:22;99937.22;;;14.15;83.02
59419;BME280;45224;50.904;6.038;2022-07-01T04:07:52;99940.69;;;14.14;83.65
59419;BME280;45224;50.904;6.038;2022-07-01T04:09:23;99955.44;;;14.13;83.46
59419;BME280;45224;50.904;6.038;2022-07-01T04:10:54;99950.31;;;14.07;83.90
59419;BME280;45224;50.904;6.038;2022-07-01T04:12:26;99947.63;;;14.15;83.39
59419;BME280;45224;50.904;6.038;2022-07-01T04:13:57;99947.63;;;14.13;83.33
59419;BME280;45224;50.904;6.038;2022-07-01T04:15:28;99944.13;;;14.16;83.24
59419;BME280;45224;50.904;6.038;2022-07-01T04:16:58;99948.53;;;14.11;83.85
59419;BME280;45224;50.904;6.038;2022-07-01T04:18:29;99951.09;;;14.14;83.33
59419;BME280;45224;50.904;6.038;2022-07-01T04:20:00;99940.81;;;14.01;84.01
59419;BME280;45224;50.904;6.038;2022-07-01T04:21:30;99947.66;;;14.12;83.42
59419;BME280;45224;50.904;6.038;2022-07-01T04:23:20;99938.09;;;14.14;83.50
59419;BME280;45224;50.904;6.038;2022-07-01T04:24:50;99942.41;;;14.15;83.83
59419;BME280;45224;50.904;6.038;2022-07-01T04:26:20;99937.25;;;14.12;83.91
59419;BME280;45224;50.904;6.038;2022-07-01T04:27:51;99942.47;;;14.12;84.02
59419;BME280;45224;50.904;6.038;2022-07-01T04:29:21;99941.59;;;14.08;84.14
59419;BME280;45224;50.904;6.038;2022-07-01T04:30:52;99946.03;;;14.01;84.85
59419;BME280;45224;50.904;6.038;2022-07-01T04:32:22;99953.78;;;14.06;84.42
59419;BME280;45224;50.904;6.038;2022-07-01T04:33:53;99952.91;;;14.05;84.10
59419;BME280;45224;50.904;6.038;2022-07-01T04:35:24;99949.47;;;14.06;85.24
59419;BME280;45224;50.904;6.038;2022-07-01T04:36:55;99942.59;;;13.99;85.39
59419;BME280;45224;50.904;6.038;2022-07-01T04:38:26;99942.50;;;14.09;84.46
59419;BME280;45224;50.904;6.038;2022-07-01T04:39:56;99944.19;;;14.10;84.67
59419;BME280;45224;50.904;6.038;2022-07-01T04:41:27;99942.53;;;14.05;84.75
59419;BME280;45224;50.904;6.038;2022-07-01T04:43:16;99949.53;;;13.99;85.01
59419;BME280;45224;50.904;6.038;2022-07-01T04:44:48;99952.97;;;14.02;84.85
59419;BME280;45224;50.904;6.038;2022-07-01T04:46:18;99946.78;;;14.11;84.62
59419;BME280;45224;50.904;6.038;2022-07-01T04:47:49;99943.31;;;14.11;84.78
59419;BME280;45224;50.904;6.038;2022-07-01T04:49:20;99948.59;;;14.04;85.15
59419;BME280;45224;50.904;6.038;2022-07-01T04:50:50;99942.47;;;14.12;84.99
59419;BME280;45224;50.904;6.038;2022-07-01T04:52:21;99941.53;;;14.16;84.50
59419;BME280;45224;50.904;6.038;2022-07-01T04:53:51;99928.50;;;14.19;84.78
59419;BME280;45224;50.904;6.038;2022-07-01T04:55:21;99926.72;;;14.21;84.77
59419;BME280;45224;50.904;6.038;2022-07-01T04:56:52;99926.63;;;14.29;84.30
59419;BME280;45224;50.904;6.038;2022-07-01T04:58:23;99933.50;;;14.34;83.79
59419;BME280;45224;50.904;6.038;2022-07-01T04:59:54;99930.97;;;14.28;85.22
59419;BME280;45224;50.904;6.038;2022-07-01T05:01:25;99930.03;;;14.32;84.50
59419;BME280;45224;50.904;6.038;2022-07-01T05:02:55;99929.97;;;14.38;83.66
59419;BME280;45224;50.904;6.038;2022-07-01T05:04:26;99931.69;;;14.39;83.88
59419;BME280;45224;50.904;6.038;2022-07-01T05:05:58;99931.72;;;14.36;83.94
59419;BME280;45224;50.904;6.038;2022-07-01T05:07:28;99927.31;;;14.43;83.67
59419;BME280;45224;50.904;6.038;2022-07-01T05:08:59;99933.47;;;14.37;84.37
59419;BME280;45224;50.904;6.038;2022-07-01T05:10:30;99929.84;;;14.48;83.42
59419;BME280;45224;50.904;6.038;2022-07-01T05:12:00;99933.28;;;14.50;83.25
59419;BME280;45224;50.904;6.038;2022-07-01T05:13:31;99932.44;;;14.49;83.34
59419;BME280;45224;50.904;6.038;2022-07-01T05:15:01;99938.41;;;14.56;83.25
59419;BME280;45224;50.904;6.038;2022-07-01T05:16:32;99940.13;;;14.57;83.01
59419;BME280;45224;50.904;6.038;2022-07-01T05:18:03;99944.44;;;14.59;83.27
59419;BME280;45224;50.904;6.038;2022-07-01T05:19:52;99944.47;;;14.55;83.90
59419;BME280;45224;50.904;6.038;2022-07-01T05:21:41;99932.25;;;14.65;82.99
59419;BME280;45224;50.904;6.038;2022-07-01T05:23:26;99937.47;;;14.65;82.96
59419;BME280;45224;50.904;6.038;2022-07-01T05:24:56;99930.56;;;14.62;83.20
59419;BME280;45224;50.904;6.038;2022-07-01T05:26:27;99934.81;;;14.66;82.81
59419;BME280;45224;50.904;6.038;2022-07-01T05:27:57;99932.97;;;14.74;82.35
59419;BME280;45224;50.904;6.038;2022-07-01T05:29:28;99927.91;;;14.65;82.87
59419;BME280;45224;50.904;6.038;2022-07-01T05:30:59;99944.34;;;14.67;83.25
59419;BME280;45224;50.904;6.038;2022-07-01T05:32:29;99941.88;;;14.55;84.18
59419;BME280;45224;50.904;6.038;2022-07-01T05:34:00;99938.38;;;14.59;83.66
59419;BME280;45224;50.904;6.038;2022-07-01T05:35:31;99941.81;;;14.61;84.04
59419;BME280;45224;50.904;6.038;2022-07-01T05:37:01;99933.13;;;14.65;83.72
59419;BME280;45224;50.904;6.038;2022-07-01T05:38:32;99943.47;;;14.68;84.02
59419;BME280;45224;50.904;6.038;2022-07-01T05:40:02;99947.66;;;14.78;83.45
59419;BME280;45224;50.904;6.038;2022-07-01T05:41:33;99951.03;;;14.85;83.08
59419;BME280;45224;50.904;6.038;2022-07-01T05:43:04;99956.50;;;14.68;83.75
59419;BME280;45224;50.904;6.038;2022-07-01T05:44:35;99955.41;;;14.82;83.52
59419;BME280;45224;50.904;6.038;2022-07-01T05:46:05;99953.53;;;14.91;82.74
59419;BME280;45224;50.904;6.038;2022-07-01T05:47:36;99962.22;;;14.90;83.54
59419;BME280;45224;50.904;6.038;2022-07-01T05:49:06;99957.72;;;15.02;82.33
59419;BME280;45224;50.904;6.038;2022-07-01T05:50:36;99963.72;;;15.07;82.62
59419;BME280;45224;50.904;6.038;2022-07-01T05:52:07;99967.09;;;15.13;82.17
59419;BME280;45224;50.904;6.038;2022-07-01T05:53:37;99961.91;;;15.12;82.04
59419;BME280;45224;50.904;6.038;2022-07-01T05:55:08;99962.91;;;15.03;82.57
59419;BME280;45224;50.904;6.038;2022-07-01T05:56:38;99967.09;;;15.13;81.92
59419;BME280;45224;50.904;6.038;2022-07-01T05:58:13;99975.78;;;15.12;82.11
59419;BME280;45224;50.904;6.038;2022-07-01T05:59:43;99983.75;;;15.00;82.33
59419;BME280;45224;50.904;6.038;2022-07-01T06:01:14;99981.03;;;15.09;81.82
59419;BME280;45224;50.904;6.038;2022-07-01T06:02:44;99978.50;;;15.05;82.38
59419;BME280;45224;50.904;6.038;2022-07-01T06:04:15;99981.06;;;15.06;81.84
59419;BME280;45224;50.904;6.038;2022-07-01T06:05:45;99982.94;;;14.98;82.11
59419;BME280;45224;50.904;6.038;2022-07-01T06:07:16;99970.81;;;14.97;82.05
59419;BME280;45224;50.904;6.038;2022-07-01T06:08:46;99978.50;;;15.03;81.92
59419;BME280;45224;50.904;6.038;2022-07-01T06:10:17;99983.72;;;15.03;81.79
59419;BME280;45224;50.904;6.038;2022-07-01T06:11:47;99981.06;;;15.08;81.73
59419;BME280;45224;50.904;6.038;2022-07-01T06:13:18;99977.59;;;15.07;81.78
59419;BME280;45224;50.904;6.038;2022-07-01T06:14:48;99981.38;;;14.88;82.64
59419;BME280;45224;50.904;6.038;2022-07-01T06:16:19;99975.06;;;15.03;81.97
59419;BME280;45224;50.904;6.038;2022-07-01T06:17:49;99980.34;;;14.96;81.97
59419;BME280;45224;50.904;6.038;2022-07-01T06:19:21;99982.81;;;15.07;81.77
59419;BME280;45224;50.904;6.038;2022-07-01T06:20:51;99991.44;;;15.09;81.41
59419;BME280;45224;50.904;6.038;2022-07-01T06:22:21;99982.84;;;15.04;81.53
59419;BME280;45224;50.904;6.038;2022-07-01T06:23:52;99980.84;;;15.22;80.53
59419;BME280;45224;50.904;6.038;2022-07-01T06:25:22;99982.63;;;15.20;80.96
59419;BME280;45224;50.904;6.038;2022-07-01T06:26:53;99981.00;;;15.12;81.20
59419;BME280;45224;50.904;6.038;2022-07-01T06:28:23;99974.66;;;15.27;80.32
59419;BME280;45224;50.904;6.038;2022-07-01T06:29:59;99982.44;;;15.29;80.36
59419;BME280;45224;50.904;6.038;2022-07-01T06:31:30;99979.84;;;15.29;80.22
59419;BME280;45224;50.904;6.038;2022-07-01T06:33:00;99977.16;;;15.35;79.79
59419;BME280;45224;50.904;6.038;2022-07-01T06:34:31;99982.22;;;15.44;80.08
59419;BME280;45224;50.904;6.038;2022-07-01T06:36:01;99980.72;;;15.31;80.54
59419;BME280;45224;50.904;6.038;2022-07-01T06:37:31;99990.19;;;15.33;80.10
59419;BME280;45224;50.904;6.038;2022-07-01T06:39:04;99990.94;;;15.40;80.08
59419;BME280;45224;50.904;6.038;2022-07-01T06:40:34;99993.50;;;15.43;80.03
59419;BME280;45224;50.904;6.038;2022-07-01T06:42:05;99995.25;;;15.43;79.95
59419;BME280;45224;50.904;6.038;2022-07-01T06:43:36;99990.94;;;15.40;80.07
59419;BME280;45224;50.904;6.038;2022-07-01T06:45:07;99990.84;;;15.46;79.97
59419;BME280;45224;50.904;6.038;2022-07-01T06:46:37;99991.72;;;15.47;79.61
59419;BME280;45224;50.904;6.038;2022-07-01T06:48:08;99997.78;;;15.47;79.80
59419;BME280;45224;50.904;6.038;2022-07-01T06:49:38;99991.63;;;15.51;78.94
59419;BME280;45224;50.904;6.038;2022-07-01T06:51:09;99985.78;;;15.37;79.18
59419;BME280;45224;50.904;6.038;2022-07-01T06:52:40;99992.69;;;15.41;79.32
59419;BME280;45224;50.904;6.038;2022-07-01T06:54:10;99990.94;;;15.42;79.03
59419;BME280;45224;50.904;6.038;2022-07-01T06:55:41;100005.00;;;15.31;79.08
59419;BME280;45224;50.904;6.038;2022-07-01T06:57:11;100010.09;;;15.39;78.82
59419;BME280;45224;50.904;6.038;2022-07-01T06:58:42;100016.09;;;15.43;78.82
59419;BME280;45224;50.904;6.038;2022-07-01T07:00:13;100005.03;;;15.30;78.87
59419;BME280;45224;50.904;6.038;2022-07-01T07:01:44;100011.97;;;15.31;78.93
59419;BME280;45224;50.904;6.038;2022-07-01T07:03:14;100009.16;;;15.42;78.58
59419;BME280;45224;50.904;6.038;2022-07-01T07:04:45;100006.63;;;15.37;78.61
59419;BME280;45224;50.904;6.038;2022-07-01T07:06:16;100005.72;;;15.41;78.64
59419;BME280;45224;50.904;6.038;2022-07-01T07:07:47;100011.69;;;15.46;78.22
59419;BME280;45224;50.904;6.038;2022-07-01T07:09:17;100015.97;;;15.52;78.65
59419;BME280;45224;50.904;6.038;2022-07-01T07:10:48;100011.56;;;15.56;77.80
59419;BME280;45224;50.904;6.038;2022-07-01T07:12:18;100011.56;;;15.56;77.90
59419;BME280;45224;50.904;6.038;2022-07-01T07:13:49;100012.25;;;15.65;77.73
59419;BME280;45224;50.904;6.038;2022-07-01T07:15:19;100013.81;;;15.74;77.47
59419;BME280;45224;50.904;6.038;2022-07-01T07:16:50;100014.97;;;15.58;78.17
59419;BME280;45224;50.904;6.038;2022-07-01T07:18:21;100019.88;;;15.79;77.14
59419;BME280;45224;50.904;6.038;2022-07-01T07:19:52;100024.00;;;15.91;77.34
59419;BME280;45224;50.904;6.038;2022-07-01T07:21:23;100017.63;;;16.06;77.15
59419;BME280;45224;50.904;6.038;2022-07-01T07:22:54;100025.25;;;16.17;77.12
59419;BME280;45224;50.904;6.038;2022-07-01T07:24:24;100024.38;;;16.16;76.83
59419;BME280;45224;50.904;6.038;2022-07-01T07:25:55;100026.63;;;16.36;76.03
59419;BME280;45224;50.904;6.038;2022-07-01T07:27:26;100031.50;;;16.52;75.39
59419;BME280;45224;50.904;6.038;2022-07-01T07:28:56;100032.47;;;16.48;74.99
59419;BME280;45224;50.904;6.038;2022-07-01T07:30:27;100038.47;;;16.53;75.26
59419;BME280;45224;50.904;6.038;2022-07-01T07:31:57;100033.25;;;16.53;74.74
59419;BME280;45224;50.904;6.038;2022-07-01T07:33:28;100033.97;;;16.59;74.46
59419;BME280;45224;50.904;6.038;2022-07-01T07:34:58;100037.16;;;16.74;73.85
59419;BME280;45224;50.904;6.038;2022-07-01T07:36:29;100030.06;;;16.79;73.74
59419;BME280;45224;50.904;6.038;2022-07-01T07:37:59;100032.41;;;16.93;73.46
59419;BME280;45224;50.904;6.038;2022-07-01T07:39:30;100028.97;;;16.92;74.10
59419;BME280;45224;50.904;6.038;2022-07-01T07:41:00;100032.88;;;17.12;73.21
59419;BME280;45224;50.904;6.038;2022-07-01T07:42:31;100030.56;;;17.36;72.90
59419;BME280;45224;50.904;6.038;2022-07-01T07:44:01;100030.13;;;17.54;73.16
59419;BME280;45224;50.904;6.038;2022-07-01T07:45:32;100032.66;;;17.57;72.41
59419;BME280;45224;50.904;6.038;2022-07-01T07:47:02;100041.69;;;17.80;71.35
59419;BME280;45224;50.904;6.038;2022-07-01T07:48:33;100039.75;;;17.88;70.58
59419;BME280;45224;50.904;6.038;2022-07-01T07:50:04;100027.25;;;17.99;69.54
59419;BME280;45224;50.904;6.038;2022-07-01T07:51:35;100019.81;;;18.17;69.06
59419;BME280;45224;50.904;6.038;2022-07-01T07:53:05;100018.56;;;18.30;67.97
59419;BME280;45224;50.904;6.038;2022-07-01T07:54:37;100028.00;;;18.34;67.41
59419;BME280;45224;50.904;6.038;2022-07-01T07:56:07;100024.34;;;18.41;67.65
59419;BME280;45224;50.904;6.038;2022-07-01T07:57:39;100025.53;;;18.61;65.85
59419;BME280;45224;50.904;6.038;2022-07-01T07:59:10;100029.19;;;18.85;64.42
59419;BME280;45224;50.904;6.038;2022-07-01T08:00:41;100032.91;;;19.06;64.89